Time;durP1;ratioP1;P1;durP2;ratioP2;P2;SDS_P1;SDS_P2;PMS_P1;PMS_P2;Temp;Humidity;BMP_temperature;BMP_pressure;BME280_temperature;BME280_humidity;BME280_pressure;Samples;Min_cycle;Max_cycle;Signal;HPM_P1;HPM_P2
2021/07/19 00:00:30;;;;;;;2.90;2.60;;;23.30;58.00;;;;;;1488818;39;20060;-60
2021/07/19 00:01:53;;;;;;;2.47;2.00;;;23.30;58.10;;;;;;1489750;39;20019;-60
2021/07/19 00:03:14;;;;;;;2.40;2.20;;;23.20;58.10;;;;;;1486955;39;20032;-60
2021/07/19 00:04:41;;;;;;;2.38;2.17;;;23.20;58.10;;;;;;1488267;39;20070;-60
2021/07/19 00:06:02;;;;;;;2.40;2.20;;;23.20;58.50;;;;;;1489981;39;20027;-60
2021/07/19 00:07:23;;;;;;;2.45;2.25;;;23.20;58.30;;;;;;1483969;40;20024;-60
2021/07/19 00:08:44;;;;;;;2.72;2.20;;;23.20;58.40;;;;;;1488259;39;20028;-60
2021/07/19 00:10:07;;;;;;;3.63;2.35;;;23.10;58.40;;;;;;1487417;39;20251;-60
2021/07/19 00:11:28;;;;;;;3.90;2.17;;;23.10;58.60;;;;;;1488765;39;20036;-60
2021/07/19 00:12:49;;;;;;;8.23;2.40;;;23.10;58.60;;;;;;1486660;39;20032;-60
2021/07/19 00:14:11;;;;;;;2.58;2.35;;;23.10;58.70;;;;;;1487429;39;20032;-60
2021/07/19 00:15:32;;;;;;;2.30;2.10;;;23.10;58.80;;;;;;1486908;39;20335;-60
2021/07/19 00:16:54;;;;;;;2.33;2.13;;;23.10;58.80;;;;;;1489535;39;20028;-61
2021/07/19 00:18:15;;;;;;;2.60;2.40;;;23.00;58.90;;;;;;1487386;39;20047;-60
2021/07/19 00:19:36;;;;;;;3.92;2.72;;;23.00;58.90;;;;;;1488033;39;20028;-60
2021/07/19 00:20:58;;;;;;;3.30;2.40;;;23.00;58.90;;;;;;1490839;39;20036;-60
2021/07/19 00:22:20;;;;;;;2.70;2.50;;;23.00;59.10;;;;;;1489250;39;20117;-60
2021/07/19 00:23:41;;;;;;;3.03;2.55;;;23.00;59.20;;;;;;1490328;39;20415;-60
2021/07/19 00:25:05;;;;;;;3.03;2.08;;;23.00;59.20;;;;;;1489626;39;20335;-60
2021/07/19 00:26:26;;;;;;;2.30;2.15;;;22.90;59.30;;;;;;1487800;39;20072;-60
2021/07/19 00:27:48;;;;;;;3.40;2.63;;;22.90;59.30;;;;;;1490399;39;20024;-60
2021/07/19 00:29:08;;;;;;;2.30;2.10;;;22.90;59.40;;;;;;1489463;39;20035;-60
2021/07/19 00:30:32;;;;;;;5.28;2.35;;;22.90;59.50;;;;;;1487509;39;20082;-60
2021/07/19 00:31:52;;;;;;;2.85;2.40;;;22.90;59.50;;;;;;1489194;39;20028;-60
2021/07/19 00:33:15;;;;;;;2.65;2.28;;;22.90;59.60;;;;;;1488202;39;20027;-60
2021/07/19 00:34:35;;;;;;;2.28;2.08;;;22.80;59.60;;;;;;1489724;39;20522;-60
2021/07/19 00:35:56;;;;;;;3.25;2.45;;;22.80;59.70;;;;;;1487758;39;20345;-60
2021/07/19 00:37:17;;;;;;;2.58;2.20;;;22.80;59.80;;;;;;1488579;39;20357;-60
2021/07/19 00:38:38;;;;;;;2.42;2.22;;;22.80;59.80;;;;;;1489670;39;20036;-60
2021/07/19 00:39:59;;;;;;;4.25;2.67;;;22.80;59.80;;;;;;1489754;39;20027;-60
2021/07/19 00:41:21;;;;;;;3.25;2.40;;;22.80;59.90;;;;;;1486029;39;20716;-60
2021/07/19 00:42:44;;;;;;;3.83;2.90;;;22.80;60.20;;;;;;1488843;39;20243;-60
2021/07/19 00:44:08;;;;;;;4.65;2.60;;;22.80;60.20;;;;;;1488354;39;20381;-60
2021/07/19 00:45:31;;;;;;;4.40;2.75;;;22.70;60.20;;;;;;1490953;39;20390;-60
2021/07/19 00:46:54;;;;;;;3.72;2.65;;;22.70;60.20;;;;;;1486876;39;20064;-60
2021/07/19 00:48:16;;;;;;;2.45;2.25;;;22.70;60.40;;;;;;1489323;39;20117;-61
2021/07/19 00:49:37;;;;;;;2.80;2.28;;;22.70;60.30;;;;;;1490410;39;20041;-61
2021/07/19 00:50:58;;;;;;;2.42;2.22;;;22.70;60.30;;;;;;1488174;39;20023;-59
2021/07/19 00:52:19;;;;;;;2.08;1.98;;;22.70;60.30;;;;;;1490425;39;20040;-60
2021/07/19 00:53:40;;;;;;;3.00;2.65;;;22.70;60.40;;;;;;1483318;40;20036;-59
2021/07/19 00:55:03;;;;;;;4.25;3.03;;;22.70;60.60;;;;;;1486079;39;20346;-60
2021/07/19 00:56:25;;;;;;;5.05;2.70;;;22.60;60.70;;;;;;1489652;39;20056;-59
2021/07/19 00:57:48;;;;;;;3.08;2.75;;;22.60;60.70;;;;;;1488971;39;20109;-62
2021/07/19 00:59:11;;;;;;;3.70;2.63;;;22.60;60.80;;;;;;1487024;39;20023;-61
2021/07/19 01:00:35;;;;;;;3.50;2.90;;;22.60;60.80;;;;;;1489447;39;20089;-61
2021/07/19 01:01:57;;;;;;;3.75;2.40;;;22.50;61.00;;;;;;1487221;39;20455;-61
2021/07/19 01:03:18;;;;;;;3.28;2.78;;;22.50;61.00;;;;;;1489140;39;20043;-61
2021/07/19 01:04:41;;;;;;;4.70;2.78;;;22.50;61.00;;;;;;1489283;39;20043;-61
2021/07/19 01:06:02;;;;;;;2.80;2.33;;;22.50;61.20;;;;;;1486708;39;20032;-61
2021/07/19 01:07:26;;;;;;;4.50;2.25;;;22.50;61.20;;;;;;1490195;39;20020;-61
2021/07/19 01:08:50;;;;;;;2.80;2.60;;;22.50;61.30;;;;;;1487053;39;20071;-61
2021/07/19 01:10:16;;;;;;;3.38;2.70;;;22.40;61.30;;;;;;1488290;39;20028;-61
2021/07/19 01:11:37;;;;;;;3.35;2.65;;;22.40;61.40;;;;;;1488999;39;20132;-61
2021/07/19 01:12:58;;;;;;;3.72;2.65;;;22.40;61.20;;;;;;1487285;39;20024;-61
2021/07/19 01:14:19;;;;;;;3.33;2.65;;;22.40;61.30;;;;;;1488303;39;20029;-61
2021/07/19 01:15:41;;;;;;;3.38;2.70;;;22.40;61.50;;;;;;1489341;39;20032;-61
2021/07/19 01:17:02;;;;;;;4.47;2.80;;;22.40;61.50;;;;;;1486414;39;20105;-61
2021/07/19 01:18:23;;;;;;;4.45;2.80;;;22.40;61.70;;;;;;1489476;39;20043;-61
2021/07/19 01:19:48;;;;;;;2.67;2.47;;;22.30;61.80;;;;;;1490793;39;20050;-61
2021/07/19 01:21:21;;;;;;;4.32;2.65;;;22.30;61.90;;;;;;1486217;39;20068;-61
2021/07/19 01:23:23;;;;;;;2.92;2.55;;;22.30;62.00;;;;;;1490001;39;20027;-61
2021/07/19 01:25:00;;;;;;;2.75;2.20;;;22.30;62.30;;;;;;1490894;39;20028;-61
2021/07/19 01:26:42;;;;;;;2.72;2.50;;;22.30;62.00;;;;;;1488061;39;20125;-61
2021/07/19 01:28:09;;;;;;;2.58;2.38;;;22.30;61.80;;;;;;1486431;39;20109;-61
2021/07/19 01:29:33;;;;;;;2.72;2.30;;;22.30;62.00;;;;;;1488297;39;20040;-61
2021/07/19 01:30:55;;;;;;;2.55;2.35;;;22.30;61.80;;;;;;1488643;39;20032;-61
2021/07/19 01:32:18;;;;;;;4.90;2.67;;;22.20;61.90;;;;;;1487082;39;20347;-61
2021/07/19 01:33:42;;;;;;;3.08;2.60;;;22.20;61.90;;;;;;1490104;39;20028;-61
2021/07/19 01:35:05;;;;;;;2.50;2.30;;;22.20;62.20;;;;;;1488959;39;20355;-61
2021/07/19 01:36:32;;;;;;;3.75;2.72;;;22.20;62.10;;;;;;1490239;39;20024;-61
2021/07/19 01:37:54;;;;;;;3.45;2.33;;;22.10;62.50;;;;;;1489616;39;20519;-61
2021/07/19 01:39:16;;;;;;;3.38;2.60;;;22.10;62.10;;;;;;1487447;39;20035;-61
2021/07/19 01:40:38;;;;;;;2.72;2.53;;;22.10;62.30;;;;;;1488386;39;20036;-61
2021/07/19 01:42:00;;;;;;;3.15;2.70;;;22.10;62.40;;;;;;1488103;39;20028;-61
2021/07/19 01:43:23;;;;;;;3.42;2.70;;;22.10;62.60;;;;;;1487989;39;20387;-61
2021/07/19 01:44:45;;;;;;;4.35;2.72;;;22.10;62.50;;;;;;1490399;39;20584;-61
2021/07/19 01:46:06;;;;;;;3.63;3.20;;;22.10;62.60;;;;;;1487896;39;20039;-62
2021/07/19 01:47:29;;;;;;;2.92;2.60;;;22.00;62.60;;;;;;1488266;39;20032;-61
2021/07/19 01:48:51;;;;;;;3.70;2.85;;;22.00;62.70;;;;;;1488224;39;20032;-61
2021/07/19 01:50:13;;;;;;;3.30;2.95;;;22.00;62.90;;;;;;1486562;39;20031;-61
2021/07/19 01:51:35;;;;;;;3.10;2.80;;;22.00;62.90;;;;;;1488156;39;20020;-61
2021/07/19 01:52:58;;;;;;;3.50;3.10;;;22.00;62.90;;;;;;1488314;39;20114;-61
2021/07/19 01:54:20;;;;;;;3.38;2.72;;;22.00;63.00;;;;;;1487630;39;20356;-61
2021/07/19 01:55:42;;;;;;;4.15;3.00;;;21.90;63.00;;;;;;1486668;39;20071;-61
2021/07/19 01:57:04;;;;;;;3.33;3.03;;;21.90;63.00;;;;;;1487116;39;20077;-61
2021/07/19 01:58:27;;;;;;;3.92;2.80;;;21.90;63.20;;;;;;1487524;39;20036;-62
2021/07/19 01:59:48;;;;;;;3.00;2.70;;;21.90;63.20;;;;;;1487586;39;20529;-61
2021/07/19 02:01:10;;;;;;;2.92;2.67;;;21.90;63.20;;;;;;1486491;39;20035;-61
2021/07/19 02:02:33;;;;;;;5.18;2.75;;;21.90;63.20;;;;;;1489733;39;20043;-61
2021/07/19 02:03:55;;;;;;;4.10;2.90;;;21.90;63.40;;;;;;1489637;39;20291;-61
2021/07/19 02:05:17;;;;;;;3.40;2.60;;;21.80;63.20;;;;;;1490290;39;20032;-61
2021/07/19 02:06:42;;;;;;;4.03;3.10;;;21.80;63.30;;;;;;1487755;39;20024;-61
2021/07/19 02:08:05;;;;;;;3.92;3.05;;;21.80;63.80;;;;;;1489192;39;20031;-61
2021/07/19 02:09:26;;;;;;;5.38;3.10;;;21.80;63.70;;;;;;1486773;39;20028;-61
2021/07/19 02:10:52;;;;;;;3.50;2.83;;;21.80;63.70;;;;;;1488304;39;20032;-61
2021/07/19 02:12:13;;;;;;;3.97;3.00;;;21.80;64.10;;;;;;1486446;39;20032;-61
2021/07/19 02:13:38;;;;;;;3.75;2.92;;;21.80;63.80;;;;;;1488545;39;20261;-61
2021/07/19 02:15:00;;;;;;;3.88;2.90;;;21.80;64.10;;;;;;1489210;39;20028;-61
2021/07/19 02:16:22;;;;;;;3.22;2.97;;;21.70;63.80;;;;;;1490817;39;20120;-61
2021/07/19 02:17:54;;;;;;;3.60;3.05;;;21.70;63.90;;;;;;1488210;39;20331;-61
2021/07/19 02:19:16;;;;;;;4.45;2.97;;;21.70;64.40;;;;;;1488560;39;20076;-61
2021/07/19 02:20:38;;;;;;;3.80;3.38;;;21.70;64.00;;;;;;1489645;39;20074;-61
2021/07/19 02:22:00;;;;;;;5.82;3.97;;;21.70;64.20;;;;;;1485825;40;20033;-61
2021/07/19 02:23:23;;;;;;;4.60;3.15;;;21.60;64.30;;;;;;1485852;39;20040;-61
2021/07/19 02:24:46;;;;;;;3.42;2.90;;;21.60;64.40;;;;;;1488531;39;20256;-61
2021/07/19 02:26:09;;;;;;;4.00;3.22;;;21.60;64.60;;;;;;1490230;39;20036;-61
2021/07/19 02:27:30;;;;;;;3.08;2.85;;;21.60;64.60;;;;;;1486983;39;20048;-61
2021/07/19 02:28:52;;;;;;;4.53;3.45;;;21.60;64.50;;;;;;1488335;39;20049;-61
2021/07/19 02:30:18;;;;;;;4.68;3.28;;;21.60;64.60;;;;;;1488133;39;20044;-61
2021/07/19 02:31:40;;;;;;;3.50;3.20;;;21.50;64.80;;;;;;1488533;39;20039;-61
2021/07/19 02:33:02;;;;;;;4.60;3.25;;;21.50;64.70;;;;;;1488454;39;20601;-62
2021/07/19 02:34:23;;;;;;;5.72;3.25;;;21.50;64.70;;;;;;1487695;39;20040;-61
2021/07/19 02:35:47;;;;;;;4.18;3.25;;;21.50;64.70;;;;;;1489039;39;20051;-61
2021/07/19 02:37:09;;;;;;;4.82;3.42;;;21.50;64.80;;;;;;1487531;39;20028;-61
2021/07/19 02:38:31;;;;;;;3.33;3.03;;;21.50;65.00;;;;;;1487825;39;20060;-61
2021/07/19 02:39:53;;;;;;;3.50;3.20;;;21.50;64.80;;;;;;1487390;39;20029;-61
2021/07/19 02:41:16;;;;;;;3.80;3.03;;;21.40;64.80;;;;;;1489395;39;20033;-61
2021/07/19 02:42:40;;;;;;;4.13;3.35;;;21.40;64.90;;;;;;1486929;39;20032;-61
2021/07/19 02:44:03;;;;;;;4.05;2.80;;;21.40;64.90;;;;;;1488885;39;20016;-61
2021/07/19 02:45:26;;;;;;;3.33;3.03;;;21.40;64.90;;;;;;1488921;39;20082;-61
2021/07/19 02:46:50;;;;;;;3.42;3.13;;;21.40;64.90;;;;;;1487438;39;20027;-61
2021/07/19 02:48:13;;;;;;;3.65;2.88;;;21.40;65.10;;;;;;1488791;39;20060;-61
2021/07/19 02:49:35;;;;;;;3.42;3.13;;;21.40;65.10;;;;;;1489447;39;20368;-61
2021/07/19 02:51:00;;;;;;;5.05;3.25;;;21.30;65.00;;;;;;1487050;39;20079;-61
2021/07/19 02:52:22;;;;;;;3.10;2.80;;;21.30;65.20;;;;;;1488030;39;20272;-61
2021/07/19 02:53:44;;;;;;;4.38;3.22;;;21.30;64.90;;;;;;1489945;39;20382;-61
2021/07/19 02:55:06;;;;;;;3.50;3.20;;;21.30;65.20;;;;;;1487535;39;20039;-61
2021/07/19 02:56:29;;;;;;;3.55;3.25;;;21.30;65.20;;;;;;1488126;39;20277;-61
2021/07/19 02:57:50;;;;;;;3.60;2.90;;;21.20;65.10;;;;;;1487936;39;20380;-61
2021/07/19 02:59:11;;;;;;;3.28;2.97;;;21.30;65.20;;;;;;1489431;39;20440;-61
2021/07/19 03:00:33;;;;;;;3.85;2.90;;;21.30;65.40;;;;;;1491191;39;20035;-61
2021/07/19 03:01:55;;;;;;;4.15;3.25;;;21.20;65.20;;;;;;1487331;39;20360;-61
2021/07/19 03:03:20;;;;;;;3.85;3.35;;;21.20;65.20;;;;;;1488065;39;20028;-61
2021/07/19 03:04:42;;;;;;;4.30;3.28;;;21.20;65.40;;;;;;1488765;39;20040;-61
2021/07/19 03:06:18;;;;;;;3.03;2.83;;;21.20;65.40;;;;;;1488619;39;20020;-61
2021/07/19 03:07:41;;;;;;;4.40;3.60;;;21.20;66.00;;;;;;1488863;39;20028;-61
2021/07/19 03:09:05;;;;;;;4.07;3.40;;;21.20;65.50;;;;;;1485792;39;20029;-61
2021/07/19 03:10:28;;;;;;;3.63;3.28;;;21.20;65.80;;;;;;1487433;39;20075;-61
2021/07/19 03:11:52;;;;;;;4.75;3.70;;;21.20;65.80;;;;;;1489445;39;20119;-62
2021/07/19 03:13:18;;;;;;;4.72;3.63;;;21.20;65.90;;;;;;1485328;39;20078;-61
2021/07/19 03:14:40;;;;;;;3.28;3.00;;;21.20;66.00;;;;;;1489737;39;20040;-61
2021/07/19 03:16:02;;;;;;;3.67;3.08;;;21.10;65.70;;;;;;1487527;39;20020;-61
2021/07/19 03:17:25;;;;;;;4.47;3.20;;;21.10;65.80;;;;;;1487110;39;20098;-61
2021/07/19 03:18:47;;;;;;;4.10;3.05;;;21.10;66.10;;;;;;1489725;39;20383;-61
2021/07/19 03:20:09;;;;;;;5.18;3.97;;;21.10;66.00;;;;;;1487505;39;20051;-61
2021/07/19 03:21:32;;;;;;;5.47;3.85;;;21.10;66.10;;;;;;1489237;39;20028;-61
2021/07/19 03:22:54;;;;;;;4.75;3.38;;;21.00;66.20;;;;;;1487125;39;20051;-61
2021/07/19 03:24:17;;;;;;;4.18;3.67;;;21.00;66.30;;;;;;1482810;40;20118;-61
2021/07/19 03:25:40;;;;;;;4.60;3.58;;;21.00;66.50;;;;;;1486158;39;20043;-61
2021/07/19 03:27:01;;;;;;;4.00;3.30;;;21.00;66.40;;;;;;1488462;39;20334;-61
2021/07/19 03:28:22;;;;;;;5.43;3.65;;;21.00;66.40;;;;;;1486884;39;20061;-61
2021/07/19 03:29:45;;;;;;;4.88;3.53;;;21.00;66.50;;;;;;1489409;39;20019;-61
2021/07/19 03:31:06;;;;;;;3.92;3.50;;;21.00;66.60;;;;;;1487085;39;20035;-61
2021/07/19 03:32:27;;;;;;;4.82;3.72;;;21.00;66.70;;;;;;1487536;39;20028;-61
2021/07/19 03:33:49;;;;;;;4.72;3.58;;;21.00;66.70;;;;;;1489443;39;20108;-61
2021/07/19 03:35:10;;;;;;;4.90;3.85;;;20.90;66.80;;;;;;1484753;39;20056;-61
2021/07/19 03:36:32;;;;;;;3.83;3.42;;;20.90;66.80;;;;;;1487907;39;20032;-61
2021/07/19 03:37:54;;;;;;;4.88;3.35;;;20.90;66.80;;;;;;1488393;39;20035;-61
2021/07/19 03:39:16;;;;;;;4.22;3.63;;;20.90;66.80;;;;;;1486044;39;20347;-61
2021/07/19 03:40:37;;;;;;;5.68;3.28;;;20.90;66.80;;;;;;1490545;39;20024;-61
2021/07/19 03:41:59;;;;;;;4.78;3.65;;;20.90;66.80;;;;;;1481640;40;20032;-61
2021/07/19 03:43:20;;;;;;;6.38;4.03;;;20.90;66.90;;;;;;1485400;39;20025;-61
2021/07/19 03:44:41;;;;;;;6.68;4.22;;;20.90;67.00;;;;;;1484662;40;20627;-61
2021/07/19 03:46:02;;;;;;;3.83;3.25;;;20.80;67.00;;;;;;1489013;39;20075;-61
2021/07/19 03:47:25;;;;;;;4.10;3.45;;;20.80;67.10;;;;;;1488476;39;20040;-61
2021/07/19 03:48:46;;;;;;;3.65;3.35;;;20.80;67.00;;;;;;1489113;39;20036;-61
2021/07/19 03:50:09;;;;;;;4.13;3.30;;;20.80;67.10;;;;;;1489871;39;20390;-61
2021/07/19 03:51:30;;;;;;;4.60;3.90;;;20.80;67.10;;;;;;1489104;39;20028;-61
2021/07/19 03:52:51;;;;;;;5.93;3.80;;;20.80;67.50;;;;;;1489364;39;20031;-61
2021/07/19 03:54:12;;;;;;;5.38;3.75;;;20.80;67.20;;;;;;1487793;39;20074;-61
2021/07/19 03:55:33;;;;;;;5.18;4.00;;;20.80;67.20;;;;;;1488669;39;20068;-61
2021/07/19 03:56:54;;;;;;;4.35;3.95;;;20.70;67.10;;;;;;1487352;39;20027;-61
2021/07/19 03:58:16;;;;;;;4.10;3.60;;;20.70;67.20;;;;;;1487248;39;20113;-61
2021/07/19 03:59:39;;;;;;;5.35;3.90;;;20.70;67.30;;;;;;1488559;39;20261;-61
2021/07/19 04:01:01;;;;;;;4.30;3.90;;;20.70;67.40;;;;;;1489140;39;20113;-61
2021/07/19 04:02:22;;;;;;;4.25;3.33;;;20.70;67.40;;;;;;1491198;39;20039;-61
2021/07/19 04:03:51;;;;;;;6.75;4.03;;;20.70;67.40;;;;;;1489640;39;20409;-61
2021/07/19 04:05:15;;;;;;;5.13;4.03;;;20.70;67.60;;;;;;1487541;39;20071;-61
2021/07/19 04:06:38;;;;;;;4.10;3.33;;;20.70;67.50;;;;;;1488682;39;20307;-61
2021/07/19 04:07:59;;;;;;;5.68;4.00;;;20.70;67.60;;;;;;1488489;39;20059;-61
2021/07/19 04:09:20;;;;;;;5.47;3.42;;;20.60;67.50;;;;;;1486830;39;20028;-61
2021/07/19 04:10:41;;;;;;;4.18;3.45;;;20.60;67.50;;;;;;1486978;39;20033;-61
2021/07/19 04:12:03;;;;;;;4.35;3.95;;;20.60;67.60;;;;;;1488101;39;20504;-61
2021/07/19 04:13:24;;;;;;;4.30;3.88;;;20.60;67.70;;;;;;1490548;39;20032;-61
2021/07/19 04:14:48;;;;;;;5.03;4.13;;;20.60;67.70;;;;;;1486659;39;20099;-61
2021/07/19 04:16:13;;;;;;;4.80;3.95;;;20.60;67.90;;;;;;1488208;39;20085;-61
2021/07/19 04:17:34;;;;;;;5.63;4.13;;;20.60;67.90;;;;;;1490014;39;20396;-61
2021/07/19 04:18:55;;;;;;;4.32;3.90;;;20.60;67.90;;;;;;1484200;40;20045;-61
2021/07/19 04:20:19;;;;;;;6.10;4.63;;;20.50;67.90;;;;;;1487486;39;20035;-61
2021/07/19 04:21:40;;;;;;;6.97;3.97;;;20.60;68.10;;;;;;1487956;39;20031;-61
2021/07/19 04:23:01;;;;;;;4.47;4.05;;;20.60;68.20;;;;;;1488079;39;20238;-61
2021/07/19 04:24:22;;;;;;;6.80;4.38;;;20.60;68.20;;;;;;1489065;39;20047;-61
2021/07/19 04:25:46;;;;;;;4.55;4.05;;;20.60;68.20;;;;;;1487522;39;20043;-61
2021/07/19 04:27:08;;;;;;;4.85;4.13;;;20.60;68.30;;;;;;1487893;39;20031;-61
2021/07/19 04:28:29;;;;;;;7.05;4.35;;;20.50;68.30;;;;;;1489894;39;20032;-61
2021/07/19 04:29:51;;;;;;;4.93;4.13;;;20.50;68.30;;;;;;1488464;39;20024;-61
2021/07/19 04:31:16;;;;;;;6.68;4.68;;;20.50;68.40;;;;;;1489960;39;20111;-61
2021/07/19 04:32:47;;;;;;;5.65;4.55;;;20.50;68.70;;;;;;1488540;39;20043;-60
2021/07/19 04:34:09;;;;;;;5.28;4.43;;;20.50;69.50;;;;;;1487275;39;20069;-61
2021/07/19 04:35:30;;;;;;;5.93;4.38;;;20.60;68.40;;;;;;1490697;39;20081;-61
2021/07/19 04:36:51;;;;;;;5.80;4.20;;;20.50;68.40;;;;;;1487244;39;20023;-61
2021/07/19 04:38:16;;;;;;;5.20;4.07;;;20.50;68.40;;;;;;1487725;39;20446;-61
2021/07/19 04:39:38;;;;;;;5.38;4.30;;;20.50;68.60;;;;;;1490128;39;20027;-61
2021/07/19 04:40:59;;;;;;;6.25;4.10;;;20.50;68.50;;;;;;1487355;39;20032;-61
2021/07/19 04:42:20;;;;;;;7.50;4.18;;;20.60;68.60;;;;;;1489033;39;20034;-61
2021/07/19 04:43:40;;;;;;;7.07;4.45;;;20.50;68.50;;;;;;1488432;39;20343;-61
2021/07/19 04:45:03;;;;;;;7.15;4.75;;;20.60;68.60;;;;;;1486741;39;20027;-61
2021/07/19 04:46:24;;;;;;;7.57;4.70;;;20.60;68.60;;;;;;1489433;39;20035;-61
2021/07/19 04:47:45;;;;;;;5.93;4.40;;;20.60;68.70;;;;;;1487444;39;20035;-61
2021/07/19 04:49:08;;;;;;;6.18;4.88;;;20.60;68.70;;;;;;1487687;39;20047;-61
2021/07/19 04:50:29;;;;;;;6.90;4.90;;;20.50;68.60;;;;;;1488279;39;21916;-61
2021/07/19 04:51:50;;;;;;;6.93;4.85;;;20.50;68.60;;;;;;1487791;39;20024;-61
2021/07/19 04:53:11;;;;;;;7.88;5.68;;;20.60;68.80;;;;;;1489734;39;20031;-61
2021/07/19 04:54:38;;;;;;;7.50;5.75;;;20.60;68.80;;;;;;1489383;39;20358;-61
2021/07/19 04:56:00;;;;;;;6.97;5.40;;;20.60;68.80;;;;;;1488032;39;20103;-61
2021/07/19 04:57:22;;;;;;;6.95;5.30;;;20.60;68.70;;;;;;1490880;39;20286;-61
2021/07/19 04:58:45;;;;;;;7.03;5.28;;;20.60;68.80;;;;;;1490956;39;20039;-61
2021/07/19 05:00:07;;;;;;;5.20;4.55;;;20.60;68.90;;;;;;1487990;39;20762;-61
2021/07/19 05:01:29;;;;;;;9.13;5.88;;;20.60;68.80;;;;;;1490079;39;20039;-61
2021/07/19 05:02:51;;;;;;;8.00;4.90;;;20.60;69.00;;;;;;1486867;39;20077;-60
2021/07/19 05:04:14;;;;;;;9.10;5.18;;;20.60;69.00;;;;;;1489594;39;20035;-61
2021/07/19 05:05:36;;;;;;;8.90;5.20;;;20.60;69.00;;;;;;1490591;39;20137;-61
2021/07/19 05:06:58;;;;;;;8.60;5.20;;;20.60;68.90;;;;;;1489086;39;20082;-61
2021/07/19 05:08:21;;;;;;;7.32;5.90;;;20.60;68.90;;;;;;1490031;39;20028;-61
2021/07/19 05:09:44;;;;;;;9.65;5.75;;;20.60;69.00;;;;;;1487877;39;20047;-61
2021/07/19 05:11:05;;;;;;;8.43;6.00;;;20.60;69.00;;;;;;1489553;39;20036;-61
2021/07/19 05:12:27;;;;;;;7.82;5.65;;;20.60;69.00;;;;;;1487926;39;20071;-61
2021/07/19 05:13:49;;;;;;;7.25;5.25;;;20.60;69.00;;;;;;1490182;39;20019;-61
2021/07/19 05:15:11;;;;;;;6.57;5.20;;;20.60;69.10;;;;;;1479950;40;20041;-61
2021/07/19 05:16:34;;;;;;;7.68;5.65;;;20.60;69.10;;;;;;1484826;39;20058;-61
2021/07/19 05:17:56;;;;;;;7.07;5.40;;;20.60;69.10;;;;;;1489483;39;20028;-61
2021/07/19 05:19:17;;;;;;;7.05;5.68;;;20.60;69.10;;;;;;1488042;39;20352;-61
2021/07/19 05:20:41;;;;;;;7.97;5.63;;;20.60;69.20;;;;;;1486748;39;20035;-61
2021/07/19 05:22:02;;;;;;;7.57;5.47;;;20.70;69.20;;;;;;1489956;39;20339;-61
2021/07/19 05:23:25;;;;;;;8.70;5.63;;;20.70;69.20;;;;;;1487922;39;20039;-61
2021/07/19 05:24:46;;;;;;;6.28;5.43;;;20.70;69.30;;;;;;1488221;39;20561;-61
2021/07/19 05:26:07;;;;;;;8.52;5.82;;;20.70;69.40;;;;;;1488210;39;20016;-61
2021/07/19 05:27:28;;;;;;;6.00;4.70;;;20.70;69.40;;;;;;1488245;39;20134;-61
2021/07/19 05:28:49;;;;;;;8.10;6.20;;;20.70;69.40;;;;;;1488077;39;20020;-61
2021/07/19 05:30:10;;;;;;;8.05;5.45;;;20.70;69.50;;;;;;1487311;39;20024;-61
2021/07/19 05:31:31;;;;;;;7.55;4.80;;;20.70;69.50;;;;;;1487798;39;20032;-61
2021/07/19 05:32:52;;;;;;;10.77;6.28;;;20.70;69.60;;;;;;1488038;39;20090;-61
2021/07/19 05:34:13;;;;;;;13.32;6.30;;;20.70;69.60;;;;;;1489485;39;20081;-61
2021/07/19 05:35:34;;;;;;;7.85;6.47;;;20.70;69.60;;;;;;1487656;39;20531;-61
2021/07/19 05:36:56;;;;;;;8.48;6.55;;;20.80;69.80;;;;;;1488790;39;20027;-61
2021/07/19 05:38:17;;;;;;;8.88;6.70;;;20.80;69.70;;;;;;1491053;39;20031;-61
2021/07/19 05:39:38;;;;;;;9.10;6.07;;;20.80;69.70;;;;;;1488443;39;20039;-61
2021/07/19 05:40:59;;;;;;;7.82;5.72;;;20.80;69.80;;;;;;1488166;39;20040;-61
2021/07/19 05:42:19;;;;;;;7.95;6.05;;;20.80;69.80;;;;;;1487642;39;20076;-61
2021/07/19 05:43:40;;;;;;;11.77;6.35;;;20.80;69.80;;;;;;1490351;39;20473;-61
2021/07/19 05:45:02;;;;;;;7.72;5.70;;;20.80;69.60;;;;;;1489931;39;20029;-61
2021/07/19 05:46:22;;;;;;;8.73;5.70;;;20.90;69.50;;;;;;1485991;39;20028;-61
2021/07/19 05:47:44;;;;;;;6.53;5.47;;;20.90;69.50;;;;;;1488871;39;20423;-61
2021/07/19 05:49:06;;;;;;;9.70;6.47;;;20.90;69.40;;;;;;1490302;39;20276;-61
2021/07/19 05:50:27;;;;;;;9.27;6.25;;;20.90;69.30;;;;;;1488533;39;20125;-61
2021/07/19 05:51:48;;;;;;;8.55;6.25;;;20.90;69.30;;;;;;1488971;39;20020;-61
2021/07/19 05:53:10;;;;;;;7.25;5.55;;;21.00;69.30;;;;;;1489637;39;20028;-61
2021/07/19 05:54:31;;;;;;;8.55;5.82;;;21.00;69.20;;;;;;1489740;39;20164;-61
2021/07/19 05:55:52;;;;;;;9.07;6.75;;;21.00;69.20;;;;;;1486536;39;20097;-61
2021/07/19 05:57:13;;;;;;;9.73;6.70;;;21.00;69.20;;;;;;1487379;39;20117;-61
2021/07/19 05:58:34;;;;;;;7.22;5.80;;;21.00;69.30;;;;;;1488676;39;20058;-61
2021/07/19 05:59:57;;;;;;;7.82;6.03;;;21.10;69.50;;;;;;1488486;39;20028;-61
2021/07/19 06:01:18;;;;;;;9.73;6.50;;;21.00;69.40;;;;;;1489628;39;20024;-61
2021/07/19 06:02:39;;;;;;;9.38;6.50;;;21.10;69.40;;;;;;1487244;39;20052;-61
2021/07/19 06:04:00;;;;;;;8.52;6.07;;;21.10;69.30;;;;;;1487774;39;20040;-61
2021/07/19 06:05:21;;;;;;;9.40;6.40;;;21.10;69.30;;;;;;1489048;39;20057;-61
2021/07/19 06:06:43;;;;;;;8.30;6.25;;;21.10;69.30;;;;;;1490081;39;20032;-61
2021/07/19 06:08:05;;;;;;;9.15;7.22;;;21.10;69.10;;;;;;1487969;39;20033;-61
2021/07/19 06:09:26;;;;;;;10.38;7.13;;;21.20;69.10;;;;;;1489046;39;20057;-61
2021/07/19 06:10:47;;;;;;;8.90;5.55;;;21.20;69.00;;;;;;1488714;39;20060;-61
2021/07/19 06:12:08;;;;;;;9.73;6.55;;;21.20;69.00;;;;;;1489230;39;20031;-61
2021/07/19 06:13:29;;;;;;;8.32;5.95;;;21.20;69.70;;;;;;1487175;39;20051;-61
2021/07/19 06:14:50;;;;;;;8.00;5.50;;;21.30;69.00;;;;;;1489730;39;20360;-61
2021/07/19 06:16:10;;;;;;;7.88;6.30;;;21.30;69.00;;;;;;1489666;39;20039;-60
2021/07/19 06:17:33;;;;;;;9.20;6.63;;;21.30;69.00;;;;;;1487955;39;20032;-61
2021/07/19 06:18:54;;;;;;;9.55;6.45;;;21.30;68.90;;;;;;1486664;39;20099;-61
2021/07/19 06:20:17;;;;;;;8.90;6.75;;;21.30;68.70;;;;;;1488996;39;20040;-61
2021/07/19 06:21:38;;;;;;;9.40;7.38;;;21.30;68.80;;;;;;1489420;39;20035;-61
2021/07/19 06:23:01;;;;;;;10.35;6.72;;;21.40;68.80;;;;;;1487527;39;20075;-61
2021/07/19 06:24:22;;;;;;;9.73;7.18;;;21.40;68.80;;;;;;1487864;39;20475;-61
2021/07/19 06:25:43;;;;;;;7.95;5.88;;;21.40;68.70;;;;;;1488017;39;20031;-61
2021/07/19 06:27:05;;;;;;;11.02;7.78;;;21.40;68.60;;;;;;1487873;39;20101;-61
2021/07/19 06:28:25;;;;;;;9.75;6.40;;;21.50;68.60;;;;;;1488463;39;20117;-61
2021/07/19 06:29:46;;;;;;;9.50;7.18;;;21.50;68.60;;;;;;1487336;39;20241;-61
2021/07/19 06:31:07;;;;;;;9.68;7.25;;;21.50;68.40;;;;;;1485519;39;20033;-61
2021/07/19 06:32:28;;;;;;;8.57;6.60;;;21.50;68.20;;;;;;1488470;39;20100;-61
2021/07/19 06:33:49;;;;;;;11.70;7.35;;;21.60;68.20;;;;;;1489029;39;20023;-61
2021/07/19 06:35:10;;;;;;;11.10;7.13;;;21.50;68.00;;;;;;1486991;39;20032;-60
2021/07/19 06:36:31;;;;;;;9.27;6.40;;;21.60;68.10;;;;;;1488917;39;20261;-61
2021/07/19 06:37:53;;;;;;;8.15;6.15;;;21.60;68.10;;;;;;1489767;39;20044;-61
2021/07/19 06:39:13;;;;;;;9.25;6.45;;;21.70;67.90;;;;;;1489843;39;20060;-61
2021/07/19 06:40:34;;;;;;;9.13;6.63;;;21.70;67.80;;;;;;1490053;39;20294;-61
2021/07/19 06:41:55;;;;;;;10.13;6.18;;;21.70;67.80;;;;;;1489899;39;20071;-62
2021/07/19 06:43:16;;;;;;;7.93;5.65;;;21.70;67.60;;;;;;1490417;39;20076;-61
2021/07/19 06:44:37;;;;;;;9.30;6.38;;;21.70;67.50;;;;;;1488681;39;20560;-61
2021/07/19 06:45:58;;;;;;;9.00;6.35;;;21.80;67.60;;;;;;1486692;39;20126;-61
2021/07/19 06:47:21;;;;;;;8.75;6.57;;;21.80;67.50;;;;;;1487591;39;20036;-61
2021/07/19 06:48:42;;;;;;;8.80;6.40;;;21.80;67.40;;;;;;1488141;39;20502;-61
2021/07/19 06:50:05;;;;;;;11.48;6.93;;;21.90;67.50;;;;;;1488437;39;20016;-61
2021/07/19 06:51:26;;;;;;;9.52;6.65;;;21.90;67.40;;;;;;1487361;39;20095;-61
2021/07/19 06:52:47;;;;;;;8.40;6.60;;;21.90;67.20;;;;;;1489549;39;20368;-62
2021/07/19 06:54:07;;;;;;;11.52;6.45;;;21.90;67.00;;;;;;1487506;39;20444;-61
2021/07/19 06:55:28;;;;;;;10.00;7.03;;;22.00;66.80;;;;;;1489497;39;20024;-61
2021/07/19 06:56:49;;;;;;;7.72;6.20;;;22.00;66.50;;;;;;1489173;39;20031;-63
2021/07/19 06:58:10;;;;;;;9.88;6.45;;;22.00;66.50;;;;;;1486761;39;20346;-61
2021/07/19 06:59:31;;;;;;;9.55;6.32;;;22.00;66.40;;;;;;1489184;39;20042;-61
2021/07/19 07:00:52;;;;;;;10.82;7.13;;;22.10;66.50;;;;;;1488446;39;20039;-61
2021/07/19 07:02:13;;;;;;;10.40;7.45;;;22.10;66.20;;;;;;1489236;39;20547;-61
2021/07/19 07:03:34;;;;;;;9.80;7.25;;;22.10;66.00;;;;;;1490062;39;20040;-61
2021/07/19 07:04:55;;;;;;;8.32;6.22;;;22.10;65.80;;;;;;1488806;39;20051;-61
2021/07/19 07:06:16;;;;;;;11.45;7.47;;;22.10;65.70;;;;;;1490412;39;20425;-61
2021/07/19 07:07:37;;;;;;;7.90;6.47;;;22.20;65.80;;;;;;1488748;39;20045;-61